sensor_id;sensor_type;location;lat;lon;timestamp;pressure;altitude;pressure_sealevel;temperature;humidity
51239;BME280;38154;47.548;18.828;2022-10-16T00:01:59;99200.34;;;13.23;94.37
51239;BME280;38154;47.548;18.828;2022-10-16T00:04:25;99195.16;;;13.14;96.47
51239;BME280;38154;47.548;18.828;2022-10-16T00:06:51;99193.37;;;13.07;97.35
51239;BME280;38154;47.548;18.828;2022-10-16T00:09:17;99192.53;;;12.98;98.52
51239;BME280;38154;47.548;18.828;2022-10-16T00:11:43;99194.31;;;12.89;98.59
51239;BME280;38154;47.548;18.828;2022-10-16T00:14:11;99197.81;;;12.75;99.84
51239;BME280;38154;47.548;18.828;2022-10-16T00:16:38;99199.53;;;12.76;100.00
51239;BME280;38154;47.548;18.828;2022-10-16T00:19:04;99203.94;;;12.64;100.00
51239;BME280;38154;47.548;18.828;2022-10-16T00:21:31;99202.19;;;12.50;100.00
51239;BME280;38154;47.548;18.828;2022-10-16T00:24:05;99207.41;;;12.44;100.00
51239;BME280;38154;47.548;18.828;2022-10-16T00:26:33;99207.41;;;12.44;100.00
51239;BME280;38154;47.548;18.828;2022-10-16T00:29:00;99212.62;;;12.36;100.00
51239;BME280;38154;47.548;18.828;2022-10-16T00:31:26;99212.62;;;12.30;100.00
51239;BME280;38154;47.548;18.828;2022-10-16T00:33:53;99217.84;;;12.27;100.00
51239;BME280;38154;47.548;18.828;2022-10-16T00:36:21;99212.62;;;12.25;100.00
51239;BME280;38154;47.548;18.828;2022-10-16T00:38:52;99217.84;;;12.24;100.00
51239;BME280;38154;47.548;18.828;2022-10-16T00:41:22;99210.88;;;12.17;100.00
51239;BME280;38154;47.548;18.828;2022-10-16T00:43:54;99217.81;;;12.09;100.00
51239;BME280;38154;47.548;18.828;2022-10-16T00:46:26;99218.69;;;12.14;100.00
51239;BME280;38154;47.548;18.828;2022-10-16T00:49:14;99220.44;;;12.16;100.00
51239;BME280;38154;47.548;18.828;2022-10-16T00:51:50;99225.66;;;12.16;100.00
51239;BME280;38154;47.548;18.828;2022-10-16T00:54:30;99222.16;;;12.11;100.00
51239;BME280;38154;47.548;18.828;2022-10-16T00:57:00;99221.31;;;12.15;100.00
51239;BME280;38154;47.548;18.828;2022-10-16T00:59:33;99229.16;;;12.18;100.00
51239;BME280;38154;47.548;18.828;2022-10-16T01:01:59;99230.91;;;12.19;100.00
51239;BME280;38154;47.548;18.828;2022-10-16T01:04:26;99234.38;;;12.12;100.00
51239;BME280;38154;47.548;18.828;2022-10-16T01:12:23;99240.44;;;11.99;100.00
51239;BME280;38154;47.548;18.828;2022-10-16T01:14:59;99236.06;;;11.99;100.00
51239;BME280;38154;47.548;18.828;2022-10-16T01:17:52;99241.28;;;11.98;100.00
51239;BME280;38154;47.548;18.828;2022-10-16T01:20:31;99248.19;;;11.88;100.00
51239;BME280;38154;47.548;18.828;2022-10-16T01:28:54;99242.06;;;11.81;100.00
51239;BME280;38154;47.548;18.828;2022-10-16T01:31:25;99239.41;;;11.69;100.00
51239;BME280;38154;47.548;18.828;2022-10-16T01:34:03;99243.78;;;11.67;100.00
51239;BME280;38154;47.548;18.828;2022-10-16T01:36:38;99242.03;;;11.69;100.00
51239;BME280;38154;47.548;18.828;2022-10-16T01:39:06;99235.06;;;11.69;100.00
51239;BME280;38154;47.548;18.828;2022-10-16T01:41:38;99229.81;;;11.63;100.00
51239;BME280;38154;47.548;18.828;2022-10-16T01:44:17;99241.97;;;11.54;100.00
51239;BME280;38154;47.548;18.828;2022-10-16T01:46:46;99248.94;;;11.51;100.00
51239;BME280;38154;47.548;18.828;2022-10-16T01:49:14;99252.38;;;11.47;100.00
51239;BME280;38154;47.548;18.828;2022-10-16T01:51:41;99255.88;;;11.46;100.00
51239;BME280;38154;47.548;18.828;2022-10-16T01:54:11;99263.72;;;11.52;100.00
51239;BME280;38154;47.548;18.828;2022-10-16T01:56:39;99253.25;;;11.46;100.00
51239;BME280;38154;47.548;18.828;2022-10-16T01:59:09;99258.47;;;11.48;100.00
51239;BME280;38154;47.548;18.828;2022-10-16T02:01:39;99258.47;;;11.45;100.00
51239;BME280;38154;47.548;18.828;2022-10-16T02:04:14;99258.47;;;11.49;100.00
51239;BME280;38154;47.548;18.828;2022-10-16T02:06:42;99260.22;;;11.50;100.00
51239;BME280;38154;47.548;18.828;2022-10-16T02:09:08;99262.03;;;11.62;100.00
51239;BME280;38154;47.548;18.828;2022-10-16T02:11:34;99256.78;;;11.58;100.00
51239;BME280;38154;47.548;18.828;2022-10-16T02:14:03;99253.25;;;11.49;100.00
51239;BME280;38154;47.548;18.828;2022-10-16T02:16:42;99261.06;;;11.49;100.00
51239;BME280;38154;47.548;18.828;2022-10-16T02:19:08;99257.62;;;11.52;100.00
51239;BME280;38154;47.548;18.828;2022-10-16T02:24:26;99266.31;;;11.46;100.00
51239;BME280;38154;47.548;18.828;2022-10-16T02:27:01;99271.47;;;11.39;100.00
51239;BME280;38154;47.548;18.828;2022-10-16T02:29:32;99269.69;;;11.36;100.00
51239;BME280;38154;47.548;18.828;2022-10-16T02:32:02;99270.59;;;11.35;100.00
51239;BME280;38154;47.548;18.828;2022-10-16T02:34:31;99273.19;;;11.35;100.00
51239;BME280;38154;47.548;18.828;2022-10-16T02:36:59;99267.13;;;11.39;100.00
51239;BME280;38154;47.548;18.828;2022-10-16T02:39:28;99268.84;;;11.37;100.00
51239;BME280;38154;47.548;18.828;2022-10-16T02:41:54;99270.63;;;11.40;100.00
51239;BME280;38154;47.548;18.828;2022-10-16T02:44:20;99275.78;;;11.33;100.00
51239;BME280;38154;47.548;18.828;2022-10-16T02:46:46;99281.88;;;11.28;100.00
51239;BME280;38154;47.548;18.828;2022-10-16T02:49:12;99279.22;;;11.25;100.00
51239;BME280;38154;47.548;18.828;2022-10-16T02:51:37;99280.06;;;11.22;100.00
51239;BME280;38154;47.548;18.828;2022-10-16T02:54:04;99279.19;;;11.22;100.00
51239;BME280;38154;47.548;18.828;2022-10-16T02:56:29;99283.53;;;11.20;100.00
51239;BME280;38154;47.548;18.828;2022-10-16T02:58:56;99284.44;;;11.22;100.00
51239;BME280;38154;47.548;18.828;2022-10-16T03:01:23;99294.88;;;11.23;100.00
51239;BME280;38154;47.548;18.828;2022-10-16T03:03:49;99292.22;;;11.19;100.00
51239;BME280;38154;47.548;18.828;2022-10-16T03:06:15;99293.97;;;11.17;100.00
51239;BME280;38154;47.548;18.828;2022-10-16T03:08:41;99296.50;;;11.07;100.00
51239;BME280;38154;47.548;18.828;2022-10-16T03:11:07;99288.66;;;11.07;100.00
51239;BME280;38154;47.548;18.828;2022-10-16T03:13:33;99288.66;;;11.09;100.00
51239;BME280;38154;47.548;18.828;2022-10-16T03:15:59;99290.50;;;11.16;99.97
51239;BME280;38154;47.548;18.828;2022-10-16T03:18:24;99306.09;;;11.10;100.00
51239;BME280;38154;47.548;18.828;2022-10-16T03:20:50;99301.75;;;11.10;100.00
51239;BME280;38154;47.548;18.828;2022-10-16T03:23:16;99301.72;;;11.09;99.82
51239;BME280;38154;47.548;18.828;2022-10-16T03:25:42;99305.16;;;11.03;100.00
51239;BME280;38154;47.548;18.828;2022-10-16T03:28:08;99305.16;;;11.03;100.00
51239;BME280;38154;47.548;18.828;2022-10-16T03:30:34;99308.59;;;11.01;100.00
51239;BME280;38154;47.548;18.828;2022-10-16T03:32:59;99316.44;;;10.96;100.00
51239;BME280;38154;47.548;18.828;2022-10-16T03:35:25;99321.66;;;10.99;100.00
51239;BME280;38154;47.548;18.828;2022-10-16T03:37:51;99321.66;;;10.96;100.00
51239;BME280;38154;47.548;18.828;2022-10-16T03:40:17;99316.47;;;11.02;99.99
51239;BME280;38154;47.548;18.828;2022-10-16T03:42:43;99316.41;;;10.99;99.90
51239;BME280;38154;47.548;18.828;2022-10-16T03:45:11;99316.38;;;10.91;100.00
51239;BME280;38154;47.548;18.828;2022-10-16T03:47:37;99309.34;;;10.86;100.00
51239;BME280;38154;47.548;18.828;2022-10-16T03:50:04;99318.88;;;10.77;100.00
51239;BME280;38154;47.548;18.828;2022-10-16T03:52:30;99320.69;;;10.88;100.00
51239;BME280;38154;47.548;18.828;2022-10-16T03:54:57;99320.72;;;10.89;100.00
51239;BME280;38154;47.548;18.828;2022-10-16T03:57:23;99318.91;;;10.84;100.00
51239;BME280;38154;47.548;18.828;2022-10-16T03:59:49;99324.94;;;10.76;100.00
51239;BME280;38154;47.548;18.828;2022-10-16T04:02:15;99325.78;;;10.75;100.00
51239;BME280;38154;47.548;18.828;2022-10-16T04:04:41;99326.72;;;10.84;100.00
51239;BME280;38154;47.548;18.828;2022-10-16T04:07:07;99333.66;;;10.79;100.00
51239;BME280;38154;47.548;18.828;2022-10-16T04:09:32;99322.28;;;10.73;100.00
51239;BME280;38154;47.548;18.828;2022-10-16T04:11:58;99329.25;;;10.73;100.00
51239;BME280;38154;47.548;18.828;2022-10-16T04:14:24;99334.53;;;10.77;100.00
51239;BME280;38154;47.548;18.828;2022-10-16T04:16:50;99340.53;;;10.70;100.00
51239;BME280;38154;47.548;18.828;2022-10-16T04:19:16;99339.72;;;10.76;100.00
51239;BME280;38154;47.548;18.828;2022-10-16T04:21:42;99332.69;;;10.70;100.00
51239;BME280;38154;47.548;18.828;2022-10-16T04:24:07;99339.63;;;10.68;100.00
51239;BME280;38154;47.548;18.828;2022-10-16T04:26:33;99344.00;;;10.72;100.00
51239;BME280;38154;47.548;18.828;2022-10-16T04:28:59;99341.22;;;10.55;100.00
51239;BME280;38154;47.548;18.828;2022-10-16T04:31:25;99337.75;;;10.53;100.00
51239;BME280;38154;47.548;18.828;2022-10-16T04:33:51;99333.38;;;10.51;100.00
51239;BME280;38154;47.548;18.828;2022-10-16T04:36:17;99337.69;;;10.46;100.00
51239;BME280;38154;47.548;18.828;2022-10-16T04:38:42;99339.34;;;10.40;100.00
51239;BME280;38154;47.548;18.828;2022-10-16T04:41:08;99342.84;;;10.43;100.00
51239;BME280;38154;47.548;18.828;2022-10-16T04:43:34;99345.59;;;10.55;100.00
51239;BME280;38154;47.548;18.828;2022-10-16T04:46:00;99335.97;;;10.49;100.00
51239;BME280;38154;47.548;18.828;2022-10-16T04:48:27;99346.44;;;10.52;100.00
51239;BME280;38154;47.548;18.828;2022-10-16T04:50:53;99340.28;;;10.49;100.00
51239;BME280;38154;47.548;18.828;2022-10-16T04:53:19;99341.97;;;10.42;100.00
51239;BME280;38154;47.548;18.828;2022-10-16T04:55:44;99340.16;;;10.36;100.00
51239;BME280;38154;47.548;18.828;2022-10-16T04:58:11;99347.97;;;10.35;100.00
51239;BME280;38154;47.548;18.828;2022-10-16T05:00:37;99334.84;;;10.30;100.00
51239;BME280;38154;47.548;18.828;2022-10-16T05:03:04;99334.97;;;10.36;100.00
51239;BME280;38154;47.548;18.828;2022-10-16T05:05:33;99335.00;;;10.39;100.00
51239;BME280;38154;47.548;18.828;2022-10-16T05:07:59;99345.41;;;10.38;100.00
51239;BME280;38154;47.548;18.828;2022-10-16T05:10:24;99350.53;;;10.32;100.00
51239;BME280;38154;47.548;18.828;2022-10-16T05:12:50;99352.31;;;10.34;100.00
51239;BME280;38154;47.548;18.828;2022-10-16T05:15:17;99347.97;;;10.35;100.00
51239;BME280;38154;47.548;18.828;2022-10-16T05:17:43;99350.56;;;10.35;100.00
51239;BME280;38154;47.548;18.828;2022-10-16T05:20:09;99356.69;;;10.37;100.00
51239;BME280;38154;47.548;18.828;2022-10-16T05:22:35;99355.00;;;10.42;100.00
51239;BME280;38154;47.548;18.828;2022-10-16T05:25:02;99362.81;;;10.39;100.00
51239;BME280;38154;47.548;18.828;2022-10-16T05:27:29;99364.47;;;10.35;100.00
51239;BME280;38154;47.548;18.828;2022-10-16T05:29:55;99353.31;;;10.46;100.00
51239;BME280;38154;47.548;18.828;2022-10-16T05:32:21;99359.47;;;10.51;100.00
51239;BME280;38154;47.548;18.828;2022-10-16T05:34:46;99363.84;;;10.56;100.00
51239;BME280;38154;47.548;18.828;2022-10-16T05:37:12;99362.16;;;10.60;99.85
51239;BME280;38154;47.548;18.828;2022-10-16T05:39:38;99369.16;;;10.66;99.73
51239;BME280;38154;47.548;18.828;2022-10-16T05:42:05;99366.56;;;10.67;99.31
51239;BME280;38154;47.548;18.828;2022-10-16T05:44:31;99366.56;;;10.67;99.51
51239;BME280;38154;47.548;18.828;2022-10-16T05:46:57;99361.37;;;10.70;99.46
51239;BME280;38154;47.548;18.828;2022-10-16T05:49:24;99364.97;;;10.80;98.65
51239;BME280;38154;47.548;18.828;2022-10-16T05:51:50;99367.59;;;10.82;97.76
51239;BME280;38154;47.548;18.828;2022-10-16T05:54:15;99375.50;;;10.91;97.84
51239;BME280;38154;47.548;18.828;2022-10-16T05:56:42;99375.53;;;10.95;97.03
51239;BME280;38154;47.548;18.828;2022-10-16T05:59:08;99379.12;;;11.05;96.49
51239;BME280;38154;47.548;18.828;2022-10-16T06:01:34;99387.00;;;11.10;95.52
51239;BME280;38154;47.548;18.828;2022-10-16T06:04:01;99391.41;;;11.19;95.28
51239;BME280;38154;47.548;18.828;2022-10-16T06:06:28;99394.19;;;11.39;93.50
51239;BME280;38154;47.548;18.828;2022-10-16T06:08:56;99393.66;;;11.86;90.89
51239;BME280;38154;47.548;18.828;2022-10-16T06:11:25;99395.53;;;12.02;89.06
51239;BME280;38154;47.548;18.828;2022-10-16T06:13:52;99399.87;;;12.00;89.00
51239;BME280;38154;47.548;18.828;2022-10-16T06:16:19;99412.06;;;11.97;88.99
51239;BME280;38154;47.548;18.828;2022-10-16T06:18:45;99416.38;;;11.96;89.53
51239;BME280;38154;47.548;18.828;2022-10-16T06:21:16;99413.84;;;12.05;89.64
51239;BME280;38154;47.548;18.828;2022-10-16T06:23:43;99434.78;;;12.10;87.99
51239;BME280;38154;47.548;18.828;2022-10-16T06:26:14;99436.69;;;12.40;87.25
51239;BME280;38154;47.548;18.828;2022-10-16T06:28:40;99430.75;;;12.92;83.79
51239;BME280;38154;47.548;18.828;2022-10-16T06:31:08;99443.56;;;14.96;74.80
51239;BME280;38154;47.548;18.828;2022-10-16T06:33:35;99444.34;;;16.95;64.75
51239;BME280;38154;47.548;18.828;2022-10-16T06:36:09;99430.00;;;18.64;57.83
51239;BME280;38154;47.548;18.828;2022-10-16T06:38:36;99426.69;;;19.34;54.04
51239;BME280;38154;47.548;18.828;2022-10-16T06:41:05;99445.06;;;20.43;50.81
51239;BME280;38154;47.548;18.828;2022-10-16T06:43:31;99445.78;;;20.17;49.96
51239;BME280;38154;47.548;18.828;2022-10-16T06:45:59;99459.22;;;20.42;49.24
51239;BME280;38154;47.548;18.828;2022-10-16T06:48:25;99456.88;;;20.94;47.86
51239;BME280;38154;47.548;18.828;2022-10-16T06:50:56;99474.06;;;20.48;48.43
51239;BME280;38154;47.548;18.828;2022-10-16T06:53:23;99479.12;;;20.57;48.02
51239;BME280;38154;47.548;18.828;2022-10-16T06:55:49;99484.19;;;21.26;46.31
51239;BME280;38154;47.548;18.828;2022-10-16T06:58:15;99485.75;;;22.40;44.17
51239;BME280;38154;47.548;18.828;2022-10-16T07:00:40;99496.34;;;22.15;43.97
51239;BME280;38154;47.548;18.828;2022-10-16T07:03:06;99508.59;;;22.71;43.17
51239;BME280;38154;47.548;18.828;2022-10-16T07:05:40;99496.56;;;23.31;42.00
51239;BME280;38154;47.548;18.828;2022-10-16T07:08:06;99500.53;;;23.87;39.78
51239;BME280;38154;47.548;18.828;2022-10-16T07:10:32;99500.16;;;24.38;39.00
51239;BME280;38154;47.548;18.828;2022-10-16T07:12:58;99492.03;;;24.00;39.40
51239;BME280;38154;47.548;18.828;2022-10-16T07:15:25;99491.91;;;23.81;39.75
51239;BME280;38154;47.548;18.828;2022-10-16T07:17:51;99495.56;;;23.56;39.85
51239;BME280;38154;47.548;18.828;2022-10-16T07:20:17;99496.16;;;23.63;40.32
51239;BME280;38154;47.548;18.828;2022-10-16T07:22:45;99489.69;;;24.33;38.70
51239;BME280;38154;47.548;18.828;2022-10-16T07:25:12;99497.81;;;23.89;39.45
51239;BME280;38154;47.548;18.828;2022-10-16T07:27:38;99499.69;;;24.07;39.21
51239;BME280;38154;47.548;18.828;2022-10-16T07:30:04;99503.56;;;24.41;38.49
51239;BME280;38154;47.548;18.828;2022-10-16T07:32:31;99498.22;;;23.78;39.44
51239;BME280;38154;47.548;18.828;2022-10-16T07:34:57;99494.41;;;24.06;38.62
51239;BME280;38154;47.548;18.828;2022-10-16T07:37:23;99498.78;;;23.64;39.11
51239;BME280;38154;47.548;18.828;2022-10-16T07:39:49;99504.75;;;24.34;38.84
51239;BME280;38154;47.548;18.828;2022-10-16T07:42:15;99510.44;;;25.26;36.86
51239;BME280;38154;47.548;18.828;2022-10-16T07:44:41;99530.56;;;25.52;35.75
51239;BME280;38154;47.548;18.828;2022-10-16T07:47:07;99525.66;;;25.43;36.53
51239;BME280;38154;47.548;18.828;2022-10-16T07:49:33;99532.72;;;25.81;36.10
51239;BME280;38154;47.548;18.828;2022-10-16T07:51:59;99532.09;;;25.39;35.35
51239;BME280;38154;47.548;18.828;2022-10-16T07:54:25;99543.81;;;26.09;35.36
51239;BME280;38154;47.548;18.828;2022-10-16T07:56:50;99547.81;;;26.36;34.77
51239;BME280;38154;47.548;18.828;2022-10-16T07:59:16;99550.38;;;26.90;33.72
51239;BME280;38154;47.548;18.828;2022-10-16T08:01:42;99555.47;;;26.43;34.15
51239;BME280;38154;47.548;18.828;2022-10-16T08:04:09;99545.78;;;26.58;33.71
51239;BME280;38154;47.548;18.828;2022-10-16T08:06:37;99543.56;;;26.84;33.10
51239;BME280;38154;47.548;18.828;2022-10-16T08:09:04;99547.34;;;27.13;32.39
51239;BME280;38154;47.548;18.828;2022-10-16T08:11:30;99549.22;;;27.61;32.19
51239;BME280;38154;47.548;18.828;2022-10-16T08:13:55;99546.28;;;26.67;33.05
51239;BME280;38154;47.548;18.828;2022-10-16T08:16:21;99540.28;;;26.26;33.86
51239;BME280;38154;47.548;18.828;2022-10-16T08:18:47;99548.81;;;26.86;33.38
51239;BME280;38154;47.548;18.828;2022-10-16T08:21:15;99544.34;;;26.51;33.82
51239;BME280;38154;47.548;18.828;2022-10-16T08:23:41;99543.66;;;26.30;33.84
51239;BME280;38154;47.548;18.828;2022-10-16T08:26:08;99548.06;;;26.99;33.08
51239;BME280;38154;47.548;18.828;2022-10-16T08:28:34;99554.59;;;26.60;33.19
51239;BME280;38154;47.548;18.828;2022-10-16T08:31:09;99552.16;;;24.89;35.54
51239;BME280;38154;47.548;18.828;2022-10-16T08:33:36;99555.53;;;25.51;34.92
51239;BME280;38154;47.548;18.828;2022-10-16T08:36:03;99563.50;;;25.89;35.08
51239;BME280;38154;47.548;18.828;2022-10-16T08:38:29;99577.78;;;26.95;33.21
51239;BME280;38154;47.548;18.828;2022-10-16T08:41:17;99575.84;;;26.28;34.18
51239;BME280;38154;47.548;18.828;2022-10-16T08:49:37;99584.91;;;26.78;32.90
51239;BME280;38154;47.548;18.828;2022-10-16T08:52:03;99580.72;;;26.73;33.62
51239;BME280;38154;47.548;18.828;2022-10-16T08:54:32;99574.56;;;26.18;34.26
51239;BME280;38154;47.548;18.828;2022-10-16T08:57:14;99576.94;;;26.77;33.67
51239;BME280;38154;47.548;18.828;2022-10-16T08:59:41;99584.19;;;28.21;31.06
51239;BME280;38154;47.548;18.828;2022-10-16T09:04:58;99586.75;;;27.92;32.06
51239;BME280;38154;47.548;18.828;2022-10-16T09:07:37;99584.31;;;28.04;31.99
51239;BME280;38154;47.548;18.828;2022-10-16T09:13:15;99584.44;;;25.99;35.03
51239;BME280;38154;47.548;18.828;2022-10-16T09:15:53;99574.37;;;24.69;37.13
51239;BME280;38154;47.548;18.828;2022-10-16T09:18:30;99577.03;;;23.38;39.63
51239;BME280;38154;47.548;18.828;2022-10-16T09:23:43;99581.78;;;23.30;41.35
51239;BME280;38154;47.548;18.828;2022-10-16T09:26:13;99576.78;;;22.95;41.81
51239;BME280;38154;47.548;18.828;2022-10-16T09:28:40;99585.66;;;23.21;42.32
51239;BME280;38154;47.548;18.828;2022-10-16T09:31:24;99586.47;;;22.98;41.50
51239;BME280;38154;47.548;18.828;2022-10-16T09:33:54;99591.66;;;23.50;41.34
51239;BME280;38154;47.548;18.828;2022-10-16T09:36:21;99584.56;;;24.59;38.52
51239;BME280;38154;47.548;18.828;2022-10-16T09:38:49;99606.00;;;25.58;36.91
51239;BME280;38154;47.548;18.828;2022-10-16T09:41:18;99600.25;;;26.21;35.22
51239;BME280;38154;47.548;18.828;2022-10-16T09:43:52;99609.03;;;26.42;35.32
51239;BME280;38154;47.548;18.828;2022-10-16T09:48:49;99607.72;;;26.14;35.72
51239;BME280;38154;47.548;18.828;2022-10-16T09:51:30;99611.00;;;26.02;36.46
51239;BME280;38154;47.548;18.828;2022-10-16T09:54:13;99618.09;;;25.65;36.48
51239;BME280;38154;47.548;18.828;2022-10-16T09:56:39;99604.84;;;24.41;38.33
51239;BME280;38154;47.548;18.828;2022-10-16T09:59:14;99606.75;;;24.60;39.21
51239;BME280;38154;47.548;18.828;2022-10-16T10:01:46;99595.19;;;24.18;39.80
51239;BME280;38154;47.548;18.828;2022-10-16T10:04:13;99585.69;;;24.95;38.90
51239;BME280;38154;47.548;18.828;2022-10-16T10:09:27;99585.47;;;23.95;40.07
51239;BME280;38154;47.548;18.828;2022-10-16T10:11:59;99581.84;;;23.03;42.78
51239;BME280;38154;47.548;18.828;2022-10-16T10:14:31;99584.59;;;22.76;44.36
51239;BME280;38154;47.548;18.828;2022-10-16T10:22:30;99580.94;;;23.51;41.63
51239;BME280;38154;47.548;18.828;2022-10-16T10:27:32;99581.84;;;24.18;40.68
51239;BME280;38154;47.548;18.828;2022-10-16T10:30:21;99579.75;;;24.47;39.81
51239;BME280;38154;47.548;18.828;2022-10-16T10:33:34;99587.78;;;24.25;40.04
51239;BME280;38154;47.548;18.828;2022-10-16T10:46:56;99592.50;;;25.02;37.29
51239;BME280;38154;47.548;18.828;2022-10-16T10:49:35;99595.69;;;24.26;38.66
51239;BME280;38154;47.548;18.828;2022-10-16T10:54:38;99591.59;;;23.51;41.83
51239;BME280;38154;47.548;18.828;2022-10-16T10:57:18;99598.84;;;23.94;40.46
51239;BME280;38154;47.548;18.828;2022-10-16T11:00:04;99600.78;;;24.53;39.72
51239;BME280;38154;47.548;18.828;2022-10-16T11:02:48;99586.53;;;24.34;38.51
51239;BME280;38154;47.548;18.828;2022-10-16T11:07:58;99581.97;;;22.75;42.93
51239;BME280;38154;47.548;18.828;2022-10-16T11:10:29;99590.50;;;22.85;42.48
51239;BME280;38154;47.548;18.828;2022-10-16T11:16:18;99581.37;;;23.63;41.51
51239;BME280;38154;47.548;18.828;2022-10-16T11:19:18;99583.41;;;23.80;41.06
51239;BME280;38154;47.548;18.828;2022-10-16T11:22:01;99573.87;;;23.50;41.26
51239;BME280;38154;47.548;18.828;2022-10-16T11:24:37;99572.41;;;24.32;40.30
51239;BME280;38154;47.548;18.828;2022-10-16T11:27:09;99583.59;;;23.97;40.65
51239;BME280;38154;47.548;18.828;2022-10-16T11:29:46;99573.38;;;23.86;42.15
51239;BME280;38154;47.548;18.828;2022-10-16T11:32:22;99577.34;;;23.52;41.21
51239;BME280;38154;47.548;18.828;2022-10-16T11:34:55;99580.31;;;23.45;41.36
51239;BME280;38154;47.548;18.828;2022-10-16T11:37:28;99571.09;;;23.53;41.61
51239;BME280;38154;47.548;18.828;2022-10-16T11:40:05;99576.75;;;23.68;41.32
51239;BME280;38154;47.548;18.828;2022-10-16T11:42:46;99576.84;;;24.11;40.93
51239;BME280;38154;47.548;18.828;2022-10-16T11:45:32;99574.97;;;23.23;41.88
51239;BME280;38154;47.548;18.828;2022-10-16T11:50:51;99575.66;;;21.42;46.62
51239;BME280;38154;47.548;18.828;2022-10-16T11:53:38;99580.53;;;21.26;47.59
51239;BME280;38154;47.548;18.828;2022-10-16T11:56:05;99577.06;;;21.24;48.13
51239;BME280;38154;47.548;18.828;2022-10-16T11:58:37;99576.38;;;21.18;48.03
51239;BME280;38154;47.548;18.828;2022-10-16T12:07:06;99563.69;;;20.98;48.32
51239;BME280;38154;47.548;18.828;2022-10-16T12:09:37;99562.28;;;20.84;49.54
51239;BME280;38154;47.548;18.828;2022-10-16T12:12:04;99565.87;;;20.83;49.85
51239;BME280;38154;47.548;18.828;2022-10-16T12:17:27;99553.59;;;20.12;51.96
51239;BME280;38154;47.548;18.828;2022-10-16T12:20:18;99556.00;;;19.85;52.08
51239;BME280;38154;47.548;18.828;2022-10-16T12:22:50;99544.53;;;19.86;53.36
51239;BME280;38154;47.548;18.828;2022-10-16T12:25:26;99554.03;;;19.56;52.26
51239;BME280;38154;47.548;18.828;2022-10-16T12:28:39;99551.81;;;19.37;53.54
51239;BME280;38154;47.548;18.828;2022-10-16T12:30:41;99549.97;;;19.41;53.81
51239;BME280;38154;47.548;18.828;2022-10-16T12:33:29;99546.69;;;19.30;53.85
51239;BME280;38154;47.548;18.828;2022-10-16T12:35:57;99544.97;;;19.25;55.10
51239;BME280;38154;47.548;18.828;2022-10-16T12:38:30;99546.09;;;19.15;53.17
51239;BME280;38154;47.548;18.828;2022-10-16T12:41:07;99551.69;;;19.01;54.31
51239;BME280;38154;47.548;18.828;2022-10-16T12:43:43;99549.81;;;19.06;54.91
51239;BME280;38154;47.548;18.828;2022-10-16T12:48:36;99564.63;;;19.14;54.88
51239;BME280;38154;47.548;18.828;2022-10-16T12:51:11;99560.56;;;18.99;56.05
51239;BME280;38154;47.548;18.828;2022-10-16T12:53:37;99560.56;;;18.99;56.00
51239;BME280;38154;47.548;18.828;2022-10-16T12:56:10;99559.69;;;18.97;57.20
51239;BME280;38154;47.548;18.828;2022-10-16T12:58:56;99564.84;;;19.04;57.82
51239;BME280;38154;47.548;18.828;2022-10-16T13:01:52;99562.38;;;18.95;57.84
51239;BME280;38154;47.548;18.828;2022-10-16T13:06:54;99569.66;;;18.82;57.01
51239;BME280;38154;47.548;18.828;2022-10-16T13:12:37;99567.31;;;18.67;57.58
51239;BME280;38154;47.548;18.828;2022-10-16T13:18:06;99576.19;;;18.63;57.87
51239;BME280;38154;47.548;18.828;2022-10-16T13:23:26;99572.91;;;18.48;58.32
51239;BME280;38154;47.548;18.828;2022-10-16T13:26:06;99569.31;;;18.54;58.79
51239;BME280;38154;47.548;18.828;2022-10-16T13:28:37;99578.06;;;18.56;58.51
51239;BME280;38154;47.548;18.828;2022-10-16T13:31:04;99575.44;;;18.54;58.84
51239;BME280;38154;47.548;18.828;2022-10-16T13:33:37;99578.06;;;18.56;57.93
51239;BME280;38154;47.548;18.828;2022-10-16T13:36:05;99575.44;;;18.54;58.87
51239;BME280;38154;47.548;18.828;2022-10-16T13:38:33;99567.59;;;18.50;58.51
51239;BME280;38154;47.548;18.828;2022-10-16T13:41:04;99576.50;;;18.44;58.62
51239;BME280;38154;47.548;18.828;2022-10-16T13:43:36;99572.22;;;18.39;57.90
51239;BME280;38154;47.548;18.828;2022-10-16T13:46:11;99566.94;;;18.39;58.51
51239;BME280;38154;47.548;18.828;2022-10-16T13:48:38;99573.13;;;18.36;57.60
51239;BME280;38154;47.548;18.828;2022-10-16T13:51:06;99579.41;;;18.30;58.68
51239;BME280;38154;47.548;18.828;2022-10-16T13:53:36;99585.50;;;18.34;59.64
51239;BME280;38154;47.548;18.828;2022-10-16T13:56:05;99582.03;;;18.32;58.93
51239;BME280;38154;47.548;18.828;2022-10-16T13:58:31;99586.31;;;18.38;59.78
51239;BME280;38154;47.548;18.828;2022-10-16T14:01:06;99580.97;;;18.42;59.95
51239;BME280;38154;47.548;18.828;2022-10-16T14:03:41;99581.91;;;18.36;61.37
51239;BME280;38154;47.548;18.828;2022-10-16T14:06:12;99582.03;;;18.32;60.78
51239;BME280;38154;47.548;18.828;2022-10-16T14:08:42;99575.03;;;18.28;60.44
51239;BME280;38154;47.548;18.828;2022-10-16T14:11:09;99572.53;;;18.22;60.71
51239;BME280;38154;47.548;18.828;2022-10-16T14:13:43;99576.06;;;18.21;60.04
51239;BME280;38154;47.548;18.828;2022-10-16T14:16:16;99577.06;;;18.13;60.17
51239;BME280;38154;47.548;18.828;2022-10-16T14:18:46;99580.53;;;18.15;60.47
51239;BME280;38154;47.548;18.828;2022-10-16T14:21:15;99581.44;;;18.13;60.25
51239;BME280;38154;47.548;18.828;2022-10-16T14:23:42;99583.28;;;18.08;60.59
51239;BME280;38154;47.548;18.828;2022-10-16T14:28:35;99583.38;;;18.03;60.98